Eddy 1 — YYV3627 — position and weather

sailwx.info

Track history (hours):
 
Tides and Currents Weather Stations Pressure Air Temp Water Temp Dewpoint Dewpoint Depression Visibility Wind Speed Wind Dir Waves Ship Positions

Eddy 1

Last reported at 2018-Mar-17 08:24 UTC. Time now 2018-Aug-19 22:51 UTC.
Position N 39°31' W 009°42'.
Warning: this ship's position is months out of date.

Length 30 m; draft 4.6 m.

Type: Tug. MMSI: 775994860.

Date/timePositionNaut miles runAvg speedWind from/ knotsBaromVisibWave heightAir tempDewpointWater temp
2018-Mar-17 08:24N 39°31' W 009°42'3 6.8
2018-Mar-17 08:00N 39°28' W 009°42'4 6.7
2018-Mar-17 07:24N 39°24' W 009°42'3 6.9
2018-Mar-17 07:00N 39°22' W 009°44'5 7.8
2018-Mar-17 06:23N 39°18' W 009°47'3 7.6
2018-Mar-17 06:00N 39°15' W 009°48'4 7.4
2018-Mar-17 05:30N 39°11' W 009°49'4 7.4
2018-Mar-17 05:00N 39°08' W 009°49'4 7.4
2018-Mar-17 04:30N 39°04' W 009°50'4 7.3
2018-Mar-17 04:00N 39°00' W 009°51'4 7.4
2018-Mar-17 03:30N 38°57' W 009°51'4 7.2
2018-Mar-17 03:01N 38°53' W 009°51'4 7.3
2018-Mar-17 02:30N 38°49' W 009°51'4 7.4
2018-Mar-17 02:00N 38°46' W 009°52'4 7.3
2018-Mar-17 01:30N 38°42' W 009°51'4 7.1
2018-Mar-17 01:00N 38°38' W 009°51'4 7.1
2018-Mar-17 00:30N 38°35' W 009°51'4 7.5
2018-Mar-17 00:00N 38°31' W 009°52'4 7.4
2018-Mar-16 23:27N 38°27' W 009°53'3 6.0
2018-Mar-16 22:58N 38°24' W 009°53'  
Track history (hours):
 
Tides and Currents Weather Stations Pressure Air Temp Water Temp Dewpoint Dewpoint Depression Visibility Wind Speed Wind Dir Waves Ship Positions

Eddy 1

Last reported at 2018-Mar-17 08:24 UTC. Time now 2018-Aug-19 22:51 UTC.
Position N 39°31' W 009°42'.
Warning: this ship's position is months out of date.

Length 30 m; draft 4.6 m.

Type: Tug. MMSI: 775994860.

Date/timePositionNaut miles runAvg speedWind from/ knotsBaromVisibWave heightAir tempDewpointWater temp
2018-Mar-17 08:24N 39°31' W 009°42'3 6.8
2018-Mar-17 08:00N 39°28' W 009°42'4 6.7
2018-Mar-17 07:24N 39°24' W 009°42'3 6.9
2018-Mar-17 07:00N 39°22' W 009°44'5 7.8
2018-Mar-17 06:23N 39°18' W 009°47'3 7.6
2018-Mar-17 06:00N 39°15' W 009°48'4 7.4
2018-Mar-17 05:30N 39°11' W 009°49'4 7.4
2018-Mar-17 05:00N 39°08' W 009°49'4 7.4
2018-Mar-17 04:30N 39°04' W 009°50'4 7.3
2018-Mar-17 04:00N 39°00' W 009°51'4 7.4
2018-Mar-17 03:30N 38°57' W 009°51'4 7.2
2018-Mar-17 03:01N 38°53' W 009°51'4 7.3
2018-Mar-17 02:30N 38°49' W 009°51'4 7.4
2018-Mar-17 02:00N 38°46' W 009°52'4 7.3
2018-Mar-17 01:30N 38°42' W 009°51'4 7.1
2018-Mar-17 01:00N 38°38' W 009°51'4 7.1
2018-Mar-17 00:30N 38°35' W 009°51'4 7.5
2018-Mar-17 00:00N 38°31' W 009°52'4 7.4
2018-Mar-16 23:27N 38°27' W 009°53'3 6.0
2018-Mar-16 22:58N 38°24' W 009°53'  

Dump ship's entire track history